Lyneham, United Kingdom

4:15 AM BST on July 01, 2015 (GMT +0100)
Wooton Bassett | | Change Station
CLOSE
Current Station
Personal Weather Station
Location: Swindon, WILTSHIRE
Elevation: 295 ft
Nearby Weather Stations

Elev 295 ft 51.55 °N, 1.93 °W | Updated 2 minutes ago

Mostly Cloudy
Mostly Cloudy
60.8 °F
Feels Like 60.8 °F
N
3.0
Wind Variable Wind from NNE
Gusts 11.0 mph

Today
High -- | Low -- °F
--% Chance of Precip.
Yesterday
High -- | Low -- °F
Precip. -- in
4:54 AM 9:28 PM
Waxing Gibbous, 99% visible
Pressure 29.88 in
Visibility 6.2 miles
Clouds Mostly Cloudy 16000 ft
Dew Point 57 °F
Humidity 87%
Rainfall 0.00 in
Snow Depth Not available.
UV 0 out of 12
Pollen Not available.
Air Quality Not available.
Flu Activity Not available.
METAR EGVA 010258Z AUTO 06005KT 9999 BKN160 18/14 A2988 RMK AO2 SLP118 60000 T01750137 57017 $

More Conditions Fewer Conditions

Pressure 29.88 in
Visibility 6.2 miles
Clouds Mostly Cloudy 16000 ft
Dew Point 57 °F
Humidity 87%
Rainfall 0.00 in
Snow Depth Not available.
UV 0 out of 12
Pollen Not available.
Air Quality Not available.
Flu Activity Not available.
METAR EGVA 010258Z AUTO 06005KT 9999 BKN160 18/14 A2988 RMK AO2 SLP118 60000 T01750137 57017 $

More Conditions Fewer Conditions

10-Day Weather Forecast

×

Almanac

Astronomy

Jul. 01, 2015 Rise Set
Actual Time
Civil Twilight
Nautical Twilight
Astronomical Twilight
Moon
Length of Visible Light
Length of Day
Tomorrow will be .
, % of the Moon is Illuminated

Today's Extremes

Country Highs Country Lows

Community

WunderPhotos

Upload Photos

1,834,122 photos uploaded!

WunderBlogs® & News

Nearby

Air Quality

  Air Quality AQ Index Pollutant
Not available.

Snow Depth

Station Depth Elevation

Earthquake Activity

City Distance Mag. Time & Date
Minimum magnitude displayed is 2.5.

Coastal Water Temperatures

Place Temperature

Stations

Nearby Weather Stations

Station Location Temp. Windchill Dew Point Humidity Wind Precip. Elev Updated Type